Time;durP1;ratioP1;P1;durP2;ratioP2;P2;SDS_P1;SDS_P2;PMS_P1;PMS_P2;Temp;Humidity;BMP_temperature;BMP_pressure;BME280_temperature;BME280_humidity;BME280_pressure;Samples;Min_cycle;Max_cycle;Signal;HPM_P1;HPM_P2
2023/01/14 00:01:11;;;;;;;0.80;0.57;;;;;;;3.08;100.00;99632.09;5110785;28;20274;-64
2023/01/14 00:03:38;;;;;;;0.40;0.40;;;;;;;3.05;100.00;99637.25;5111063;28;20227;-61
2023/01/14 00:06:06;;;;;;;1.60;1.07;;;;;;;3.00;100.00;99631.53;5110680;28;20193;-61
2023/01/14 00:08:33;;;;;;;0.90;0.90;;;;;;;3.00;100.00;99641.66;5111032;28;20304;-61
2023/01/14 00:11:06;;;;;;;0.70;0.70;;;;;;;3.04;100.00;99649.06;5110882;27;20204;-60
2023/01/14 00:13:35;;;;;;;0.60;0.60;;;;;;;3.06;100.00;99662.47;5110991;28;20224;-63
2023/01/14 00:16:03;;;;;;;4.33;0.80;;;;;;;3.07;100.00;99658.25;5110612;28;20199;-60
2023/01/14 00:18:32;;;;;;;1.47;1.30;;;;;;;3.17;100.00;99655.38;5110756;28;20221;-61
2023/01/14 00:21:01;;;;;;;2.53;0.70;;;;;;;3.09;100.00;99662.38;5110653;28;20208;-63
2023/01/14 00:23:29;;;;;;;1.17;1.07;;;;;;;2.82;100.00;99664.09;5110649;28;20221;-63
2023/01/14 00:26:05;;;;;;;1.03;0.97;;;;;;;2.93;100.00;99666.25;5110674;28;20201;-63
2023/01/14 00:28:31;;;;;;;3.20;1.30;;;;;;;2.86;100.00;99660.56;5110780;28;20416;-60
2023/01/14 00:31:07;;;;;;;0.63;0.63;;;;;;;2.76;100.00;99659.19;5110590;28;20212;-63
2023/01/14 00:33:34;;;;;;;2.07;0.90;;;;;;;2.88;100.00;99652.94;5110239;28;20209;-64
2023/01/14 00:36:01;;;;;;;0.57;0.57;;;;;;;2.82;100.00;99659.03;5110681;28;20292;-61
2023/01/14 00:38:28;;;;;;;0.67;0.67;;;;;;;2.77;100.00;99658.34;5110713;28;20221;-61
2023/01/14 00:41:09;;;;;;;2.87;1.20;;;;;;;2.70;100.00;99659.41;5110349;28;20205;-61
2023/01/14 00:43:36;;;;;;;1.13;0.90;;;;;;;2.71;100.00;99661.88;5110067;28;20235;-61
2023/01/14 00:46:05;;;;;;;1.03;1.03;;;;;;;2.77;100.00;99650.78;5110575;27;20208;-64
2023/01/14 00:48:32;;;;;;;2.73;1.40;;;;;;;2.81;100.00;99647.25;5110244;28;20274;-64
2023/01/14 00:50:59;;;;;;;3.03;1.23;;;;;;;2.86;100.00;99647.94;5110105;28;20197;-64
2023/01/14 00:53:26;;;;;;;2.77;1.13;;;;;;;2.90;100.00;99639.41;5109641;28;20232;-64
2023/01/14 00:55:53;;;;;;;0.73;0.73;;;;;;;2.99;100.00;99640.78;5110045;28;20201;-61
2023/01/14 00:58:21;;;;;;;1.37;1.27;;;;;;;2.88;100.00;99633.59;5109998;28;20193;-61
2023/01/14 01:00:48;;;;;;;0.50;0.50;;;;;;;2.83;100.00;99640.47;5109870;28;20204;-64
2023/01/14 01:03:16;;;;;;;0.57;0.57;;;;;;;2.98;100.00;99633.28;5110071;28;20221;-63
2023/01/14 01:05:43;;;;;;;0.80;0.80;;;;;;;2.93;100.00;99629.19;5109843;28;20197;-61
2023/01/14 01:08:13;;;;;;;0.70;0.53;;;;;;;2.97;100.00;99631.63;5110053;28;20197;-61
2023/01/14 01:10:41;;;;;;;1.30;1.13;;;;;;;3.02;100.00;99629.78;5109992;28;20189;-61
2023/01/14 01:13:08;;;;;;;2.03;1.60;;;;;;;3.10;100.00;99632.88;5110054;28;20201;-61
2023/01/14 01:15:37;;;;;;;0.93;0.87;;;;;;;3.17;100.00;99624.22;5109847;28;20197;-63
2023/01/14 01:18:05;;;;;;;1.03;1.03;;;;;;;3.10;100.00;99632.88;5109588;28;20193;-63
2023/01/14 01:20:33;;;;;;;1.60;1.47;;;;;;;2.89;100.00;99625.13;5109816;28;20205;-63
2023/01/14 01:22:59;;;;;;;3.33;1.13;;;;;;;2.89;100.00;99625.13;5110022;28;20220;-64
2023/01/14 01:25:27;;;;;;;1.30;1.20;;;;;;;2.97;100.00;99626.56;5109765;28;20684;-64
2023/01/14 01:27:54;;;;;;;3.40;2.33;;;;;;;2.97;100.00;99607.22;5109700;28;20209;-64
2023/01/14 01:30:22;;;;;;;1.27;1.17;;;;;;;2.94;100.00;99608.13;5109696;28;20218;-61
2023/01/14 01:32:50;;;;;;;1.63;1.27;;;;;;;2.92;100.00;99614.09;5109586;28;20219;-60
2023/01/14 01:35:17;;;;;;;1.30;1.20;;;;;;;2.92;100.00;99612.41;5109597;28;20230;-61
2023/01/14 01:37:44;;;;;;;3.43;1.23;;;;;;;3.01;100.00;99607.94;5109571;28;20220;-61
2023/01/14 01:40:13;;;;;;;1.13;1.03;;;;;;;3.13;100.00;99602.47;5109770;28;20728;-61
2023/01/14 01:42:54;;;;;;;1.17;1.07;;;;;;;3.18;100.00;99610.72;5109536;28;20229;-61
2023/01/14 01:45:29;;;;;;;0.77;0.77;;;;;;;3.18;100.00;99595.56;5109676;28;20258;-61
2023/01/14 01:48:04;;;;;;;3.40;1.20;;;;;;;3.22;100.00;99596.28;5109798;28;20575;-60
2023/01/14 01:50:31;;;;;;;0.50;0.47;;;;;;;3.10;100.00;99594.97;5109506;28;20553;-61
2023/01/14 01:53:00;;;;;;;2.27;1.67;;;;;;;2.78;100.00;99601.09;5109798;28;20209;-61
2023/01/14 01:55:27;;;;;;;1.03;0.93;;;;;;;2.69;100.00;99599.69;5109807;28;20208;-61
2023/01/14 01:57:56;;;;;;;3.20;1.13;;;;;;;2.76;100.00;99588.50;5109459;28;20213;-63
2023/01/14 02:00:25;;;;;;;4.50;1.27;;;;;;;2.73;100.00;99588.59;5109211;28;20213;-63
2023/01/14 02:02:57;;;;;;;1.10;1.00;;;;;;;2.62;100.00;99585.63;5109422;28;20233;-61
2023/01/14 02:05:25;;;;;;;1.10;0.73;;;;;;;2.71;100.00;99577.75;5110738;28;20603;-61
2023/01/14 02:07:52;;;;;;;0.93;0.93;;;;;;;2.78;100.00;99581.72;5113379;28;20205;-61
2023/01/14 02:10:20;;;;;;;2.00;0.80;;;;;;;2.85;100.00;99572.22;5112942;28;20213;-60
2023/01/14 02:13:10;;;;;;;0.57;0.57;;;;;;;2.95;100.00;99574.41;5112917;28;20193;-61
2023/01/14 02:15:50;;;;;;;1.00;1.00;;;;;;;2.94;100.00;99572.78;5112833;28;20682;-61
2023/01/14 02:18:34;;;;;;;0.53;0.53;;;;;;;2.75;100.00;99574.25;5113141;28;20197;-61
2023/01/14 02:21:09;;;;;;;1.07;0.97;;;;;;;2.70;100.00;99568.50;5112942;28;20197;-64
2023/01/14 02:24:12;;;;;;;1.00;0.93;;;;;;;2.77;100.00;99574.19;5112764;28;20617;-61
2023/01/14 02:26:59;;;;;;;1.10;1.00;;;;;;;2.69;100.00;99567.69;5112986;28;20197;-61
2023/01/14 02:29:43;;;;;;;3.20;0.40;;;;;;;2.48;100.00;99570.91;5112906;28;20701;-64
2023/01/14 02:32:16;;;;;;;0.87;0.53;;;;;;;2.39;100.00;99577.06;5112615;28;20674;-63
2023/01/14 02:34:52;;;;;;;2.30;1.07;;;;;;;2.31;100.00;99563.84;5112443;28;20221;-63
2023/01/14 02:37:27;;;;;;;0.70;0.70;;;;;;;2.47;100.00;99565.03;5112663;28;20193;-60
2023/01/14 02:40:02;;;;;;;1.63;1.00;;;;;;;2.67;100.00;99561.03;5113039;28;20300;-63
2023/01/14 02:45:29;;;;;;;0.93;0.93;;;;;;;2.31;100.00;99563.03;5112470;28;20236;-61
2023/01/14 02:47:58;;;;;;;1.17;0.90;;;;;;;2.22;100.00;99564.97;5112589;28;20193;-63
2023/01/14 02:50:25;;;;;;;3.70;1.00;;;;;;;2.21;100.00;99562.47;5112454;28;20263;-60
2023/01/14 02:52:52;;;;;;;0.90;0.87;;;;;;;2.13;100.00;99551.81;5112400;28;20383;-60
2023/01/14 02:55:29;;;;;;;1.40;1.03;;;;;;;2.31;100.00;99563.03;5111869;28;20416;-60
2023/01/14 02:58:10;;;;;;;0.73;0.73;;;;;;;2.21;100.00;99570.03;5112448;28;20266;-60
2023/01/14 03:00:51;;;;;;;0.70;0.50;;;;;;;2.20;100.00;99563.34;5112109;28;20254;-64
2023/01/14 03:03:32;;;;;;;0.53;0.47;;;;;;;2.00;100.00;99566.47;5111964;28;20224;-63
2023/01/14 03:06:21;;;;;;;4.77;0.77;;;;;;;2.10;100.00;99562.00;5112011;28;20197;-64
2023/01/14 03:08:54;;;;;;;1.57;1.47;;;;;;;2.36;100.00;99569.59;5111877;28;20720;-61
2023/01/14 03:11:21;;;;;;;0.77;0.73;;;;;;;2.27;100.00;99569.88;5112119;28;20205;-60
2023/01/14 03:13:53;;;;;;;0.67;0.67;;;;;;;2.28;100.00;99576.56;5111697;28;20221;-60
2023/01/14 03:16:29;;;;;;;1.20;0.80;;;;;;;2.16;100.00;99577.75;5111121;28;20193;-61
2023/01/14 03:19:02;;;;;;;0.90;0.83;;;;;;;2.18;100.00;99580.22;5112028;28;20223;-60
2023/01/14 03:21:35;;;;;;;0.40;0.33;;;;;;;2.23;100.00;99583.44;5112064;28;20209;-63
2023/01/14 03:24:08;;;;;;;1.73;1.13;;;;;;;2.23;100.00;99583.44;5111651;28;20236;-63
2023/01/14 03:26:39;;;;;;;0.47;0.47;;;;;;;2.10;100.00;99577.94;5111655;28;20220;-63
2023/01/14 03:29:11;;;;;;;1.00;1.00;;;;;;;2.32;100.00;99572.25;5111944;28;20217;-64
2023/01/14 03:31:44;;;;;;;0.60;0.60;;;;;;;2.33;100.00;99576.41;5111656;28;20208;-61
2023/01/14 03:34:15;;;;;;;1.00;1.00;;;;;;;2.21;100.00;99582.66;5111767;28;20220;-61
2023/01/14 03:36:47;;;;;;;1.00;0.80;;;;;;;2.02;100.00;99584.91;5111392;28;20564;-63
2023/01/14 03:39:17;;;;;;;1.27;1.10;;;;;;;2.01;100.00;99581.56;5111838;28;20217;-61
2023/01/14 03:44:47;;;;;;;2.77;1.50;;;;;;;1.96;100.00;99583.38;5111474;28;20739;-61
2023/01/14 03:47:16;;;;;;;0.90;0.80;;;;;;;1.85;100.00;99582.88;5111234;28;20193;-61
2023/01/14 03:49:43;;;;;;;2.10;1.13;;;;;;;1.89;100.00;99579.41;5111116;28;20697;-61
2023/01/14 03:52:15;;;;;;;1.00;1.00;;;;;;;2.00;100.00;99577.38;5111154;28;20208;-60
2023/01/14 03:54:49;;;;;;;2.53;1.07;;;;;;;1.91;100.00;99582.69;5111513;28;20223;-61
2023/01/14 03:57:22;;;;;;;0.93;0.90;;;;;;;1.83;100.00;99584.59;5111165;28;20303;-63
2023/01/14 03:59:56;;;;;;;0.70;0.43;;;;;;;1.93;100.00;99588.53;5110962;28;20231;-63
2023/01/14 04:02:26;;;;;;;1.43;1.33;;;;;;;1.94;100.00;99577.56;5110980;28;20228;-64
2023/01/14 04:04:55;;;;;;;1.10;1.10;;;;;;;1.87;100.00;99583.66;5110778;28;20225;-61
2023/01/14 04:07:23;;;;;;;1.73;1.57;;;;;;;1.89;100.00;99578.56;5110922;28;20197;-64
2023/01/14 04:09:49;;;;;;;1.93;1.63;;;;;;;1.88;100.00;99581.94;5110788;28;20702;-61
2023/01/14 04:12:16;;;;;;;1.17;1.00;;;;;;;1.96;100.00;99585.91;5110737;28;20201;-64
2023/01/14 04:17:29;;;;;;;0.83;0.80;;;;;;;2.00;100.00;99571.50;5110860;28;20581;-63
2023/01/14 04:19:56;;;;;;;0.97;0.93;;;;;;;1.95;100.00;99571.66;5110379;28;20221;-60
2023/01/14 04:22:22;;;;;;;1.57;1.47;;;;;;;1.91;100.00;99567.56;5110538;28;20240;-61
2023/01/14 04:24:49;;;;;;;8.03;1.40;;;;;;;1.92;100.00;99569.22;5110721;28;20213;-61
2023/01/14 04:27:16;;;;;;;2.90;1.63;;;;;;;1.93;100.00;99560.78;5110436;28;20238;-61
2023/01/14 04:29:43;;;;;;;4.87;0.90;;;;;;;1.88;100.00;99562.59;5110510;28;20228;-64
2023/01/14 04:32:10;;;;;;;0.80;0.80;;;;;;;1.95;100.00;99564.09;5110508;28;20194;-61
2023/01/14 04:34:38;;;;;;;1.60;1.20;;;;;;;2.02;100.00;99559.69;5110357;28;20221;-61
2023/01/14 04:37:05;;;;;;;1.27;1.17;;;;;;;1.97;100.00;99559.81;5110365;28;20201;-61
2023/01/14 04:39:32;;;;;;;0.50;0.50;;;;;;;1.93;100.00;99560.78;5110687;28;20225;-61
2023/01/14 04:44:44;;;;;;;0.43;0.43;;;;;;;1.99;100.00;99568.16;5110398;28;20260;-61
2023/01/14 04:47:11;;;;;;;0.73;0.60;;;;;;;1.98;100.00;99569.03;5110436;28;20189;-61
2023/01/14 04:49:39;;;;;;;1.60;0.97;;;;;;;2.04;100.00;99568.03;5110155;28;20228;-63
2023/01/14 04:52:06;;;;;;;1.03;1.03;;;;;;;2.10;100.00;99572.09;5109985;28;20194;-64
2023/01/14 04:54:33;;;;;;;1.10;1.10;;;;;;;2.07;100.00;99573.00;5110226;28;20243;-63
2023/01/14 04:57:00;;;;;;;0.63;0.63;;;;;;;2.10;100.00;99577.13;5110050;28;20582;-64
2023/01/14 04:59:27;;;;;;;1.30;0.77;;;;;;;2.26;100.00;99573.25;5110012;28;20302;-61
2023/01/14 05:01:53;;;;;;;1.67;1.57;;;;;;;2.21;100.00;99580.13;5109954;28;20230;-61
2023/01/14 05:04:20;;;;;;;1.93;1.50;;;;;;;2.20;100.00;99573.44;5110012;28;20244;-61
2023/01/14 05:06:49;;;;;;;2.93;2.10;;;;;;;2.22;100.00;99574.22;5109784;28;20198;-63
2023/01/14 05:09:16;;;;;;;1.27;1.10;;;;;;;2.25;100.00;99579.19;5110136;28;20240;-63
2023/01/14 05:11:43;;;;;;;1.47;0.93;;;;;;;2.31;100.00;99576.47;5109890;28;20582;-61
2023/01/14 05:14:10;;;;;;;1.67;1.10;;;;;;;2.24;100.00;99572.47;5109749;28;20354;-61
2023/01/14 05:16:36;;;;;;;0.50;0.50;;;;;;;2.34;100.00;99570.50;5109617;28;20197;-64
2023/01/14 05:19:04;;;;;;;1.80;1.70;;;;;;;2.46;100.00;99573.47;5110013;28;20598;-61
2023/01/14 05:21:31;;;;;;;1.43;1.33;;;;;;;2.55;100.00;99572.34;5109798;28;20287;-61
2023/01/14 05:23:59;;;;;;;5.70;2.10;;;;;;;2.66;100.00;99572.84;5110089;28;20233;-61
2023/01/14 05:26:26;;;;;;;1.03;1.03;;;;;;;2.61;100.00;99561.22;5109769;28;20208;-61
2023/01/14 05:28:53;;;;;;;10.97;3.97;;;;;;;2.69;100.00;99572.72;5109819;28;20228;-61
2023/01/14 05:31:20;;;;;;;2.10;2.00;;;;;;;2.55;100.00;99576.56;5109752;28;20205;-61
2023/01/14 05:33:47;;;;;;;1.67;1.57;;;;;;;2.77;100.00;99575.03;5109978;28;20217;-61
2023/01/14 05:36:13;;;;;;;2.10;1.73;;;;;;;2.79;100.00;99578.31;5109608;28;20205;-61
2023/01/14 05:38:40;;;;;;;1.03;0.63;;;;;;;2.82;100.00;99578.22;5109883;28;20213;-61
2023/01/14 05:41:13;;;;;;;0.77;0.77;;;;;;;2.87;100.00;99576.34;5112307;28;20226;-64
2023/01/14 05:46:24;;;;;;;2.33;1.53;;;;;;;2.99;100.00;99584.41;5113715;28;20204;-64
2023/01/14 05:48:51;;;;;;;1.90;1.00;;;;;;;3.03;100.00;99585.97;5113355;28;20235;-61
2023/01/14 05:51:17;;;;;;;0.73;0.73;;;;;;;2.94;100.00;99587.94;5113438;28;20208;-61
2023/01/14 05:53:44;;;;;;;1.10;0.90;;;;;;;3.13;100.00;99587.31;5113377;28;20213;-64
2023/01/14 05:56:13;;;;;;;1.17;0.83;;;;;;;3.06;100.00;99590.94;5113739;28;20205;-61
2023/01/14 05:58:39;;;;;;;1.17;0.67;;;;;;;3.15;100.00;99590.59;5113429;28;20213;-61
2023/01/14 06:06:39;;;;;;;4.93;2.27;;;;;;;3.26;100.00;99598.66;5113252;28;20196;-61
2023/01/14 06:09:10;;;;;;;1.43;1.33;;;;;;;3.27;100.00;99597.75;5112930;28;20239;-61
2023/01/14 06:11:41;;;;;;;0.90;0.90;;;;;;;3.17;100.00;99597.25;5113064;28;20673;-63
2023/01/14 06:14:07;;;;;;;0.80;0.80;;;;;;;3.28;100.00;99601.94;5113124;28;20225;-64
2023/01/14 06:16:39;;;;;;;2.90;1.57;;;;;;;3.36;100.00;99594.91;5112634;28;20612;-64
2023/01/14 06:19:07;;;;;;;1.40;1.30;;;;;;;3.36;100.00;99594.91;5113116;28;20696;-64
2023/01/14 06:21:35;;;;;;;0.83;0.83;;;;;;;3.42;100.00;99605.69;5112853;28;20673;-65
2023/01/14 06:24:02;;;;;;;0.63;0.63;;;;;;;3.45;100.00;99608.94;5112675;28;20237;-65
2023/01/14 06:26:29;;;;;;;1.07;0.80;;;;;;;3.38;100.00;99607.53;5112957;28;20201;-61
2023/01/14 06:29:03;;;;;;;1.57;0.90;;;;;;;3.54;100.00;99608.63;5112750;28;20720;-61
2023/01/14 06:31:30;;;;;;;0.77;0.77;;;;;;;3.42;100.00;99603.19;5112859;28;20251;-61
2023/01/14 06:33:57;;;;;;;0.40;0.40;;;;;;;3.37;100.00;99606.69;5112979;28;20216;-60
2023/01/14 06:36:25;;;;;;;2.23;1.27;;;;;;;3.32;100.00;99608.56;5112920;28;20403;-64
2023/01/14 06:38:52;;;;;;;0.80;0.80;;;;;;;3.38;100.00;99607.53;5112757;28;20229;-61
2023/01/14 06:41:19;;;;;;;1.37;1.27;;;;;;;3.33;100.00;99610.19;5112511;28;20205;-61
2023/01/14 06:43:46;;;;;;;2.20;2.00;;;;;;;3.47;100.00;99611.44;5112298;28;20243;-63
2023/01/14 06:46:16;;;;;;;1.47;0.63;;;;;;;3.50;100.00;99606.28;5112606;28;20206;-61
2023/01/14 06:48:44;;;;;;;1.40;1.20;;;;;;;3.52;100.00;99612.06;5112502;28;20213;-61
2023/01/14 06:51:13;;;;;;;1.07;1.03;;;;;;;3.53;100.00;99611.22;5111691;28;20309;-63
2023/01/14 06:53:40;;;;;;;1.33;0.90;;;;;;;3.55;100.00;99612.81;5112151;28;20248;-61
2023/01/14 06:56:09;;;;;;;0.70;0.70;;;;;;;3.66;100.00;99627.59;5112433;28;20211;-61
2023/01/14 06:58:36;;;;;;;0.47;0.43;;;;;;;3.74;100.00;99624.78;5112225;28;20217;-64
2023/01/14 07:01:05;;;;;;;0.87;0.87;;;;;;;3.81;100.00;99627.06;5112219;28;20213;-64
2023/01/14 07:03:33;;;;;;;0.80;0.70;;;;;;;3.69;100.00;99630.00;5112058;28;20236;-64
2023/01/14 07:06:00;;;;;;;0.43;0.43;;;;;;;3.57;100.00;99632.97;5112015;28;20202;-64
2023/01/14 07:08:28;;;;;;;1.10;0.80;;;;;;;3.63;100.00;99635.28;5112244;28;20217;-61
2023/01/14 07:10:55;;;;;;;1.70;1.20;;;;;;;3.57;100.00;99638.84;5111942;28;20736;-61
2023/01/14 07:13:22;;;;;;;1.87;1.70;;;;;;;3.60;100.00;99632.88;5112243;28;20224;-61
2023/01/14 07:15:51;;;;;;;0.57;0.50;;;;;;;3.55;100.00;99644.84;5111629;28;20208;-61
2023/01/14 07:18:18;;;;;;;0.93;0.93;;;;;;;3.46;100.00;99635.03;5111831;28;20201;-63
2023/01/14 07:20:47;;;;;;;1.50;0.97;;;;;;;3.35;100.00;99633.72;5111735;28;20205;-64
2023/01/14 07:23:13;;;;;;;0.67;0.40;;;;;;;3.32;100.00;99643.13;5111743;28;20205;-61
2023/01/14 07:25:40;;;;;;;1.17;1.07;;;;;;;3.30;100.00;99643.16;5111758;28;20209;-61
2023/01/14 07:28:07;;;;;;;0.80;0.80;;;;;;;3.24;100.00;99640.84;5111703;28;20676;-63
2023/01/14 07:30:34;;;;;;;1.07;0.97;;;;;;;3.32;100.00;99643.13;5111483;27;20209;-64
2023/01/14 07:33:01;;;;;;;1.30;1.20;;;;;;;3.47;100.00;99645.13;5111701;28;20198;-64
2023/01/14 07:35:29;;;;;;;2.77;1.13;;;;;;;3.47;100.00;99651.88;5111518;28;20218;-64
2023/01/14 07:37:58;;;;;;;1.53;1.43;;;;;;;3.30;100.00;99654.97;5111535;28;20204;-61
2023/01/14 07:40:26;;;;;;;2.50;1.50;;;;;;;3.25;100.00;99654.28;5111679;28;20221;-61
2023/01/14 07:42:57;;;;;;;0.97;0.97;;;;;;;3.38;100.00;99653.84;5111398;28;20740;-64
2023/01/14 07:45:24;;;;;;;4.40;1.83;;;;;;;3.43;100.00;99651.13;5111221;28;20228;-64
2023/01/14 07:47:51;;;;;;;2.67;2.20;;;;;;;3.54;100.00;99653.31;5111283;28;20211;-61
2023/01/14 07:50:18;;;;;;;1.57;1.20;;;;;;;3.62;100.00;99654.69;5111078;28;20218;-61
2023/01/14 07:52:52;;;;;;;0.60;0.60;;;;;;;3.65;100.00;99651.22;5111195;28;20193;-61
2023/01/14 07:55:21;;;;;;;2.73;1.53;;;;;;;3.58;100.00;99659.94;5111010;28;20217;-63
2023/01/14 07:57:48;;;;;;;2.47;1.67;;;;;;;3.46;100.00;99661.16;5110800;28;20563;-61
2023/01/14 08:00:16;;;;;;;0.90;0.73;;;;;;;3.51;100.00;99668.56;5111032;28;20760;-61
2023/01/14 08:02:43;;;;;;;0.80;0.80;;;;;;;3.60;100.00;99665.72;5110598;28;20201;-64
2023/01/14 08:05:10;;;;;;;5.40;2.57;;;;;;;3.47;100.00;99662.81;5110921;28;20240;-64
2023/01/14 08:07:38;;;;;;;4.17;1.80;;;;;;;3.38;100.00;99669.00;5110696;28;20609;-64
2023/01/14 08:10:06;;;;;;;1.37;0.90;;;;;;;3.25;100.00;99661.88;5110769;28;20224;-64
2023/01/14 08:12:35;;;;;;;0.83;0.83;;;;;;;3.25;100.00;99661.88;5111081;28;20219;-64
2023/01/14 08:15:02;;;;;;;1.00;1.00;;;;;;;3.34;100.00;99662.38;5110822;28;20229;-64
2023/01/14 08:17:29;;;;;;;0.50;0.50;;;;;;;3.39;100.00;99670.63;5110907;28;20280;-63
2023/01/14 08:19:56;;;;;;;0.53;0.53;;;;;;;3.56;100.00;99676.84;5110610;27;20217;-64
2023/01/14 08:22:22;;;;;;;1.40;0.90;;;;;;;3.62;100.00;99674.91;5110799;28;20204;-61
2023/01/14 08:24:50;;;;;;;1.30;1.20;;;;;;;3.63;100.00;99673.22;5110327;28;20237;-61
2023/01/14 08:27:17;;;;;;;1.50;0.73;;;;;;;3.72;100.00;99675.41;5110398;28;20212;-61
2023/01/14 08:29:46;;;;;;;0.90;0.90;;;;;;;3.71;100.00;99683.88;5110293;28;20225;-61
2023/01/14 08:32:13;;;;;;;0.80;0.80;;;;;;;3.44;100.00;99687.38;5110676;28;20277;-64
2023/01/14 08:34:40;;;;;;;0.20;0.20;;;;;;;3.39;100.00;99688.34;5110779;28;20221;-61
2023/01/14 08:37:07;;;;;;;0.30;0.30;;;;;;;3.48;100.00;99693.97;5110547;28;20201;-61
2023/01/14 08:39:34;;;;;;;0.33;0.33;;;;;;;3.50;100.00;99682.94;5110715;28;20221;-61
2023/01/14 08:42:00;;;;;;;0.53;0.53;;;;;;;3.68;100.00;99696.63;5110229;28;20197;-61
2023/01/14 08:44:27;;;;;;;0.40;0.40;;;;;;;3.75;100.00;99698.09;5110228;28;20233;-64
2023/01/14 08:46:56;;;;;;;1.27;0.83;;;;;;;3.79;100.00;99704.69;5110309;28;20237;-64
2023/01/14 08:49:22;;;;;;;1.40;1.03;;;;;;;3.77;100.00;99706.44;5110358;28;20720;-64
2023/01/14 08:51:50;;;;;;;3.13;1.20;;;;;;;3.68;100.00;99701.69;5110014;28;20204;-64
2023/01/14 08:54:16;;;;;;;1.17;1.03;;;;;;;3.61;100.00;99695.22;5109804;28;20228;-61
2023/01/14 08:56:43;;;;;;;0.40;0.40;;;;;;;3.64;100.00;99707.75;5109934;28;20202;-61
2023/01/14 08:59:12;;;;;;;0.93;0.93;;;;;;;3.75;100.00;99700.63;5110167;28;20213;-64
2023/01/14 09:01:39;;;;;;;0.80;0.77;;;;;;;3.69;100.00;99705.88;5109873;28;20212;-64
2023/01/14 09:04:07;;;;;;;1.27;1.13;;;;;;;3.65;100.00;99706.88;5109964;28;20233;-64
2023/01/14 09:17:04;;;;;;;1.03;0.93;;;;;;;3.63;100.00;99709.44;5109928;28;20685;-63
2023/01/14 09:17:34;;;;;;;0.77;0.77;;;;;;;3.48;100.00;99699.03;5109860;28;20270;-61
2023/01/14 09:20:04;;;;;;;0.40;0.40;;;;;;;3.73;100.00;99702.38;5109673;28;20576;-61
2023/01/14 09:22:31;;;;;;;0.30;0.30;;;;;;;3.88;100.00;99707.78;5109949;28;20219;-63
2023/01/14 09:24:58;;;;;;;0.27;0.27;;;;;;;3.77;100.00;99706.44;5109907;28;20240;-64
2023/01/14 09:27:27;;;;;;;0.77;0.77;;;;;;;3.76;100.00;99703.97;5109654;28;20197;-64
2023/01/14 09:29:54;;;;;;;0.23;0.23;;;;;;;3.81;100.00;99695.34;5109763;28;20232;-60
2023/01/14 09:32:21;;;;;;;0.17;0.17;;;;;;;3.81;100.00;99702.09;5109614;28;20193;-60
2023/01/14 09:34:50;;;;;;;0.27;0.27;;;;;;;3.67;100.00;99700.06;5109555;28;20221;-63
2023/01/14 09:37:19;;;;;;;1.30;0.77;;;;;;;3.68;100.00;99700.88;5109524;28;20205;-64
2023/01/14 09:39:46;;;;;;;0.30;0.30;;;;;;;3.65;100.00;99690.88;5110039;28;20259;-60
2023/01/14 09:42:16;;;;;;;0.80;0.80;;;;;;;3.76;100.00;99699.75;5109583;28;20204;-60
2023/01/14 09:44:44;;;;;;;1.63;0.93;;;;;;;3.76;100.00;99689.63;5109551;28;20248;-60
2023/01/14 09:47:14;;;;;;;0.30;0.30;;;;;;;3.78;100.00;99689.56;5109546;28;20283;-60
2023/01/14 09:49:42;;;;;;;0.87;0.87;;;;;;;3.71;100.00;99695.72;5109834;28;20224;-63
2023/01/14 09:52:26;;;;;;;3.30;0.77;;;;;;;3.60;100.00;99693.53;5109450;28;20196;-63
2023/01/14 09:55:02;;;;;;;0.97;0.43;;;;;;;3.47;100.00;99687.25;5109622;28;20221;-63
2023/01/14 09:57:43;;;;;;;0.33;0.33;;;;;;;3.46;100.00;99690.66;5109642;28;20578;-63
2023/01/14 10:00:31;;;;;;;1.10;0.73;;;;;;;3.62;100.00;99682.50;5109745;28;20217;-63
2023/01/14 10:03:11;;;;;;;0.43;0.43;;;;;;;3.78;100.00;99682.81;5109436;28;20209;-60
2023/01/14 10:05:40;;;;;;;0.37;0.30;;;;;;;3.90;100.00;99689.16;5109312;28;20274;-61
2023/01/14 10:08:13;;;;;;;0.43;0.43;;;;;;;4.06;100.00;99681.81;5109146;28;20208;-60
2023/01/14 10:10:42;;;;;;;0.50;0.50;;;;;;;3.86;100.00;99680.81;5109663;28;20205;-60
2023/01/14 10:13:14;;;;;;;0.30;0.30;;;;;;;4.06;100.00;99682.66;5109524;28;20197;-60
2023/01/14 10:15:46;;;;;;;0.60;0.60;;;;;;;4.16;100.00;99688.22;5109336;28;20212;-61
2023/01/14 10:18:20;;;;;;;0.83;0.83;;;;;;;4.06;100.00;99682.66;5109127;28;20194;-63
2023/01/14 10:20:54;;;;;;;0.80;0.80;;;;;;;4.01;100.00;99683.69;5109204;28;20752;-63
2023/01/14 10:23:26;;;;;;;1.63;1.00;;;;;;;4.02;100.00;99680.31;5109120;28;20216;-63
2023/01/14 10:25:55;;;;;;;1.77;0.60;;;;;;;4.07;100.00;99683.47;5109689;28;20240;-63
2023/01/14 10:28:24;;;;;;;0.30;0.30;;;;;;;4.16;100.00;99677.25;5112837;28;21005;-60
2023/01/14 10:30:52;;;;;;;0.60;0.60;;;;;;;4.25;100.00;99682.81;5112878;28;20292;-60
2023/01/14 10:33:21;;;;;;;1.77;1.00;;;;;;;4.19;100.00;99685.56;5112551;28;20190;-60
2023/01/14 10:35:53;;;;;;;0.87;0.60;;;;;;;4.20;100.00;99683.88;5112103;28;20197;-60
2023/01/14 10:38:24;;;;;;;0.47;0.47;;;;;;;4.20;100.00;99672.03;5111554;28;20446;-63
2023/01/14 10:40:54;;;;;;;1.47;0.93;;;;;;;4.15;100.00;99678.97;5112320;28;20204;-64
2023/01/14 10:43:29;;;;;;;1.23;1.13;;;;;;;4.22;100.00;99682.13;5113154;28;20209;-60
2023/01/14 10:45:56;;;;;;;1.23;0.97;;;;;;;4.34;100.00;99676.59;5112623;28;20228;-60
2023/01/14 10:48:24;;;;;;;0.97;0.87;;;;;;;4.31;100.00;99672.47;5112561;28;20213;-60
2023/01/14 10:50:52;;;;;;;0.47;0.47;;;;;;;4.35;100.00;99672.34;5112551;28;20209;-59
2023/01/14 10:53:21;;;;;;;0.50;0.43;;;;;;;4.32;100.00;99666.50;5112371;28;20193;-63
2023/01/14 10:55:54;;;;;;;2.07;1.77;;;;;;;4.49;100.00;99665.06;5112403;28;20216;-64
2023/01/14 10:58:28;;;;;;;0.80;0.80;;;;;;;4.68;100.00;99665.16;5112567;28;20208;-63
2023/01/14 11:01:03;;;;;;;0.63;0.60;;;;;;;4.69;100.00;99657.53;5112828;28;20200;-64
2023/01/14 11:03:32;;;;;;;0.60;0.43;;;;;;;4.79;100.00;99657.97;5112543;28;20247;-59
2023/01/14 11:06:02;;;;;;;0.53;0.53;;;;;;;4.75;100.00;99647.16;5112280;27;20225;-60
2023/01/14 11:08:34;;;;;;;1.40;1.30;;;;;;;4.71;100.00;99649.84;5111996;28;20640;-60
2023/01/14 11:11:07;;;;;;;0.87;0.80;;;;;;;4.73;100.00;99648.09;5111716;28;20254;-59
2023/01/14 11:13:41;;;;;;;1.10;0.93;;;;;;;4.81;100.00;99645.25;5111200;28;20232;-64
2023/01/14 11:16:34;;;;;;;1.33;0.70;;;;;;;4.89;100.00;99648.31;5112051;28;20196;-64
2023/01/14 11:19:03;;;;;;;0.73;0.73;;;;;;;4.93;100.00;99652.38;5112007;28;20713;-64
2023/01/14 11:21:34;;;;;;;2.47;0.60;;;;;;;5.05;100.00;99644.25;5111827;28;20205;-59
2023/01/14 11:24:06;;;;;;;0.47;0.47;;;;;;;4.92;100.00;99649.03;5112051;28;20221;-59
2023/01/14 11:26:36;;;;;;;0.60;0.60;;;;;;;5.02;100.00;99649.47;5111675;28;20579;-60
2023/01/14 11:29:16;;;;;;;1.07;0.97;;;;;;;5.11;100.00;99641.47;5111472;28;20294;-63
2023/01/14 11:31:44;;;;;;;1.03;0.93;;;;;;;5.09;100.00;99640.75;5111838;28;20197;-64
2023/01/14 11:34:24;;;;;;;0.80;0.80;;;;;;;5.12;100.00;99645.69;5111590;28;20218;-64
2023/01/14 11:36:50;;;;;;;0.97;0.67;;;;;;;5.28;100.00;99650.13;5111403;28;20204;-63
2023/01/14 11:39:21;;;;;;;0.73;0.63;;;;;;;5.15;100.00;99648.09;5110520;28;20217;-59
2023/01/14 11:41:49;;;;;;;1.50;1.40;;;;;;;5.20;100.00;99651.25;5111758;28;20661;-59
2023/01/14 11:44:28;;;;;;;1.13;1.03;;;;;;;5.27;100.00;99653.53;5111393;28;20225;-63
2023/01/14 11:47:16;;;;;;;1.23;1.03;;;;;;;5.11;100.00;99641.47;5111716;27;20201;-63
2023/01/14 11:49:42;;;;;;;1.43;0.93;;;;;;;5.15;100.00;99650.63;5111636;28;20602;-59
2023/01/14 11:52:19;;;;;;;1.73;1.10;;;;;;;5.10;100.00;99652.50;5111501;28;20196;-59
2023/01/14 11:54:47;;;;;;;1.20;1.13;;;;;;;5.07;100.00;99645.03;5110195;28;20220;-58
2023/01/14 11:57:17;;;;;;;1.97;1.80;;;;;;;5.14;100.00;99643.06;5111149;28;20201;-59
2023/01/14 11:59:46;;;;;;;0.60;0.60;;;;;;;5.20;100.00;99643.63;5111319;28;20247;-63
2023/01/14 12:02:18;;;;;;;1.10;1.00;;;;;;;5.15;100.00;99650.63;5111125;28;20204;-63
2023/01/14 12:04:52;;;;;;;0.57;0.57;;;;;;;5.20;100.00;99653.78;5110930;28;20689;-59
2023/01/14 12:07:24;;;;;;;0.47;0.47;;;;;;;5.20;100.00;99653.78;5110718;28;20679;-59
2023/01/14 12:09:57;;;;;;;0.97;0.43;;;;;;;5.19;100.00;99652.13;5111200;28;20225;-59
2023/01/14 12:12:30;;;;;;;1.77;1.37;;;;;;;4.95;100.00;99653.16;5110883;28;20209;-59
2023/01/14 12:17:53;;;;;;;0.50;0.50;;;;;;;4.86;100.00;99661.09;5109138;28;20342;-63